Metar GG30 METAR message from awiacja.imgw.pl Metar G30 EPWR METAR EPWR 201530Z 20008KT CAVOK 07/M01 Q1019 =